Time;durP1;ratioP1;P1;durP2;ratioP2;P2;SDS_P1;SDS_P2;PMS_P1;PMS_P2;Temp;Humidity;BMP_temperature;BMP_pressure;BME280_temperature;BME280_humidity;BME280_pressure;Samples;Min_cycle;Max_cycle;Signal;HPM_P1;HPM_P2
2023/04/28 00:00:13;;;;;;;3.58;2.42;;;14.20;92.70;;;;;;6223468;28;20064;-79
2023/04/28 00:03:15;;;;;;;2.67;2.47;;;14.20;92.90;;;;;;6223052;28;20046;-79
2023/04/28 00:06:17;;;;;;;4.72;3.17;;;14.20;93.00;;;;;;6216280;28;20052;-79
2023/04/28 00:09:18;;;;;;;4.50;3.55;;;14.20;93.10;;;;;;6200137;28;20050;-79
2023/04/28 00:12:20;;;;;;;4.57;3.53;;;14.10;93.20;;;;;;6200352;28;20053;-79
2023/04/28 00:15:23;;;;;;;3.65;3.22;;;14.20;93.30;;;;;;6200702;28;20053;-79
2023/04/28 00:18:25;;;;;;;4.63;2.90;;;14.10;93.40;;;;;;6201320;28;20054;-79
2023/04/28 00:21:27;;;;;;;7.18;3.28;;;14.10;93.70;;;;;;6205123;28;20050;-79
2023/04/28 00:24:29;;;;;;;5.05;3.08;;;14.00;93.90;;;;;;6213022;28;20057;-78
2023/04/28 00:27:32;;;;;;;5.43;3.10;;;14.00;94.30;;;;;;6206839;28;20042;-79
2023/04/28 00:30:35;;;;;;;4.22;3.83;;;14.00;94.70;;;;;;6205611;28;20054;-79
2023/04/28 00:33:37;;;;;;;3.60;2.70;;;13.90;95.00;;;;;;6217144;28;20050;-79
2023/04/28 00:36:38;;;;;;;5.90;2.88;;;13.90;95.20;;;;;;6205196;28;20046;-79
2023/04/28 00:39:40;;;;;;;3.17;2.97;;;13.80;95.40;;;;;;6202668;28;20046;-78
2023/04/28 00:42:42;;;;;;;3.78;3.40;;;13.80;95.50;;;;;;6202738;28;20046;-79
2023/04/28 00:45:45;;;;;;;4.32;3.38;;;13.80;95.60;;;;;;6203120;28;20050;-79
2023/04/28 00:48:46;;;;;;;4.32;3.17;;;13.80;95.80;;;;;;6203251;28;20061;-79
2023/04/28 00:51:48;;;;;;;6.63;3.90;;;13.80;96.00;;;;;;6202737;28;20046;-78
2023/04/28 00:54:50;;;;;;;5.38;3.38;;;13.80;96.30;;;;;;6202300;28;20054;-78
2023/04/28 00:57:52;;;;;;;6.40;5.15;;;13.80;96.50;;;;;;6203661;28;20050;-78
2023/04/28 01:01:03;;;;;;;3.45;3.15;;;13.70;96.70;;;;;;6203045;28;20046;-78
2023/04/28 01:04:04;;;;;;;6.50;3.55;;;13.70;97.00;;;;;;6202799;28;20420;-79
2023/04/28 01:07:06;;;;;;;4.00;3.53;;;13.70;97.10;;;;;;6204433;28;20046;-79
2023/04/28 01:10:09;;;;;;;5.93;3.38;;;13.60;97.30;;;;;;6228942;28;20054;-79
2023/04/28 01:13:11;;;;;;;7.28;3.55;;;13.70;97.60;;;;;;6228769;28;20117;-79
2023/04/28 01:16:14;;;;;;;6.03;4.10;;;13.70;97.80;;;;;;6228160;28;20209;-79
2023/04/28 01:19:21;;;;;;;3.58;3.28;;;13.70;97.90;;;;;;6229303;28;20052;-79
2023/04/28 01:22:23;;;;;;;3.40;3.00;;;13.70;97.90;;;;;;6229486;28;20050;-79
2023/04/28 01:25:26;;;;;;;4.97;4.07;;;13.70;97.80;;;;;;6228077;28;20052;-79
2023/04/28 01:28:27;;;;;;;4.35;2.72;;;13.70;97.90;;;;;;6227112;28;20050;-79
2023/04/28 01:31:30;;;;;;;4.47;3.72;;;13.70;97.90;;;;;;6226344;28;20049;-79
2023/04/28 01:34:32;;;;;;;6.80;3.75;;;13.70;98.00;;;;;;6228417;28;20084;-79
2023/04/28 01:37:33;;;;;;;4.90;3.78;;;13.70;98.20;;;;;;6226691;28;20057;-79
2023/04/28 01:40:36;;;;;;;5.55;3.42;;;13.70;98.30;;;;;;6226494;28;20046;-79
2023/04/28 01:43:38;;;;;;;4.50;3.78;;;13.40;98.50;;;;;;6237781;28;20504;-79
2023/04/28 01:46:40;;;;;;;6.40;3.80;;;13.30;98.90;;;;;;6227576;28;20054;-79
2023/04/28 01:49:41;;;;;;;9.30;3.65;;;13.30;99.10;;;;;;6227377;28;20046;-79
2023/04/28 01:52:43;;;;;;;6.25;3.25;;;13.30;99.40;;;;;;6225928;28;20053;-79
2023/04/28 01:55:46;;;;;;;5.45;4.55;;;13.30;99.50;;;;;;6227462;28;20046;-79
2023/04/28 01:58:48;;;;;;;8.18;4.28;;;13.30;99.70;;;;;;6226498;28;20108;-79
2023/04/28 02:01:50;;;;;;;4.78;3.95;;;13.30;99.90;;;;;;6226807;28;20046;-78
2023/04/28 02:04:51;;;;;;;6.32;3.85;;;13.30;99.90;;;;;;6225885;28;20046;-79
2023/04/28 02:07:53;;;;;;;5.47;3.92;;;13.30;99.90;;;;;;6226427;28;20054;-78
2023/04/28 02:10:57;;;;;;;5.90;4.05;;;13.30;99.90;;;;;;6225989;28;20053;-79
2023/04/28 02:13:58;;;;;;;5.20;4.63;;;13.20;99.90;;;;;;6225526;28;20057;-79
2023/04/28 02:17:01;;;;;;;9.00;4.40;;;13.10;99.90;;;;;;6226407;28;20050;-79
2023/04/28 02:20:03;;;;;;;10.50;5.90;;;13.00;99.90;;;;;;6226486;28;20105;-79
2023/04/28 02:23:05;;;;;;;5.65;3.95;;;13.10;99.90;;;;;;6226337;28;20042;-79
2023/04/28 02:26:08;;;;;;;5.10;4.60;;;13.10;99.90;;;;;;6225959;28;20061;-79
2023/04/28 02:29:10;;;;;;;4.60;4.20;;;13.10;99.90;;;;;;6225182;28;20057;-79
2023/04/28 02:32:12;;;;;;;4.70;4.10;;;13.10;99.90;;;;;;6225759;28;20085;-79
2023/04/28 02:35:14;;;;;;;6.25;5.65;;;13.20;99.90;;;;;;6225934;28;20041;-79
2023/04/28 02:38:16;;;;;;;4.65;4.20;;;13.20;99.90;;;;;;6226476;28;20085;-79
2023/04/28 02:41:19;;;;;;;5.40;4.90;;;13.20;99.90;;;;;;6225674;28;20050;-79
2023/04/28 02:44:21;;;;;;;7.55;5.22;;;13.20;99.90;;;;;;6224992;28;20136;-80
2023/04/28 02:47:23;;;;;;;4.57;4.18;;;13.20;99.90;;;;;;6225708;28;20046;-80
2023/04/28 02:50:25;;;;;;;5.50;4.70;;;13.20;99.90;;;;;;6226131;28;20073;-79
2023/04/28 02:53:27;;;;;;;7.88;5.65;;;13.10;99.90;;;;;;6237623;28;20042;-79
2023/04/28 02:56:30;;;;;;;5.72;5.13;;;13.00;99.90;;;;;;6225136;28;20057;-79
2023/04/28 02:59:32;;;;;;;7.53;5.28;;;13.00;99.90;;;;;;6224842;28;20046;-78
2023/04/28 03:02:33;;;;;;;6.10;5.30;;;13.00;99.90;;;;;;6225997;28;20046;-79
2023/04/28 03:05:35;;;;;;;6.80;5.32;;;12.90;99.90;;;;;;6224438;28;20045;-79
2023/04/28 03:08:37;;;;;;;11.80;6.40;;;12.90;99.90;;;;;;6225022;28;20042;-79
2023/04/28 03:11:40;;;;;;;9.85;6.32;;;12.90;99.90;;;;;;6225901;28;20508;-79
2023/04/28 03:14:41;;;;;;;7.45;5.78;;;12.90;99.90;;;;;;6223878;28;20060;-78
2023/04/28 03:17:44;;;;;;;7.22;6.03;;;12.80;99.90;;;;;;6201312;28;20058;-79
2023/04/28 03:20:46;;;;;;;7.60;6.28;;;12.80;99.90;;;;;;6201154;28;20100;-78
2023/04/28 03:23:47;;;;;;;6.97;6.15;;;12.80;99.90;;;;;;6199577;28;20042;-80
2023/04/28 03:26:51;;;;;;;7.30;6.43;;;12.80;99.90;;;;;;6201166;28;20058;-79
2023/04/28 03:29:52;;;;;;;10.32;6.07;;;12.80;99.90;;;;;;6201303;28;20046;-79
2023/04/28 03:32:54;;;;;;;7.05;6.30;;;12.70;99.90;;;;;;6200222;28;20053;-79
2023/04/28 03:35:56;;;;;;;7.47;6.45;;;12.60;99.90;;;;;;6200508;28;20058;-79
2023/04/28 03:38:57;;;;;;;7.82;6.70;;;12.60;99.90;;;;;;6204786;28;20058;-79
2023/04/28 03:42:01;;;;;;;8.70;5.93;;;12.60;99.90;;;;;;6213672;28;20050;-79
2023/04/28 03:45:02;;;;;;;7.40;6.60;;;12.70;99.90;;;;;;6203461;28;20046;-78
2023/04/28 03:48:04;;;;;;;6.18;5.35;;;12.70;99.90;;;;;;6205581;28;20043;-79
2023/04/28 03:51:06;;;;;;;7.57;6.60;;;12.60;99.90;;;;;;6200877;28;20054;-79
2023/04/28 03:54:08;;;;;;;6.45;5.85;;;12.60;99.90;;;;;;6203751;28;20053;-79
2023/04/28 03:57:11;;;;;;;6.80;6.07;;;12.60;99.90;;;;;;6204971;28;20428;-79
2023/04/28 04:00:13;;;;;;;10.13;5.60;;;12.60;99.90;;;;;;6206759;28;20050;-79
2023/04/28 04:03:16;;;;;;;6.55;5.95;;;12.60;99.90;;;;;;6216703;28;20493;-79
2023/04/28 04:06:17;;;;;;;7.15;5.75;;;12.70;99.90;;;;;;6207459;28;20050;-80
2023/04/28 04:09:19;;;;;;;11.50;6.25;;;12.70;99.90;;;;;;6204540;28;20054;-80
2023/04/28 04:12:22;;;;;;;9.07;6.30;;;12.80;99.90;;;;;;6206551;28;20181;-80
2023/04/28 04:15:24;;;;;;;11.57;6.00;;;12.80;99.90;;;;;;6204131;28;20046;-80
2023/04/28 04:18:26;;;;;;;6.95;5.38;;;12.80;99.90;;;;;;6204607;28;20112;-79
2023/04/28 04:21:28;;;;;;;6.07;5.55;;;12.80;99.90;;;;;;6204111;28;20576;-79
2023/04/28 04:24:29;;;;;;;9.45;5.75;;;12.90;99.90;;;;;;6203738;28;20057;-79
2023/04/28 04:27:32;;;;;;;6.72;6.13;;;12.90;99.90;;;;;;6204402;28;20049;-79
2023/04/28 04:30:34;;;;;;;7.15;5.32;;;12.90;99.90;;;;;;6204212;28;20057;-80
2023/04/28 04:33:37;;;;;;;5.82;4.82;;;13.00;99.90;;;;;;6203725;28;20060;-78
2023/04/28 04:36:39;;;;;;;6.53;5.93;;;13.00;99.90;;;;;;6202886;28;20057;-79
2023/04/28 04:39:40;;;;;;;6.55;5.55;;;13.00;99.90;;;;;;6203835;28;20053;-79
2023/04/28 04:42:43;;;;;;;5.57;4.97;;;13.10;99.90;;;;;;6203165;28;20049;-80
2023/04/28 04:45:45;;;;;;;8.02;6.00;;;13.10;99.90;;;;;;6203874;28;20054;-79
2023/04/28 04:48:47;;;;;;;6.57;5.47;;;13.10;99.90;;;;;;6203393;28;20048;-79
2023/04/28 04:51:48;;;;;;;7.13;5.75;;;13.10;99.90;;;;;;6203270;28;20053;-79
2023/04/28 04:54:50;;;;;;;8.20;5.85;;;13.20;99.90;;;;;;6202550;28;20061;-79
2023/04/28 04:57:53;;;;;;;6.75;5.95;;;13.30;99.90;;;;;;6203664;28;20051;-79
2023/04/28 05:00:55;;;;;;;5.78;5.13;;;13.30;99.90;;;;;;6203069;28;20046;-79
2023/04/28 05:03:56;;;;;;;8.18;5.70;;;13.30;99.90;;;;;;6203034;28;20046;-79
2023/04/28 05:06:58;;;;;;;8.85;5.65;;;13.30;99.90;;;;;;6202523;28;20042;-79
2023/04/28 05:10:00;;;;;;;6.95;5.88;;;13.30;99.90;;;;;;6214364;28;20064;-79
2023/04/28 05:13:03;;;;;;;12.27;4.88;;;13.40;99.90;;;;;;6207025;28;20464;-79
2023/04/28 05:16:06;;;;;;;7.03;6.32;;;13.30;99.90;;;;;;6203835;28;20042;-79
2023/04/28 05:19:07;;;;;;;9.82;6.05;;;13.40;99.90;;;;;;6203127;28;20039;-79
2023/04/28 05:22:10;;;;;;;6.55;5.85;;;13.40;99.90;;;;;;6205510;28;20057;-79
2023/04/28 05:25:12;;;;;;;6.68;6.07;;;13.40;99.90;;;;;;6202995;28;20046;-79
2023/04/28 05:28:15;;;;;;;5.55;4.55;;;13.40;99.90;;;;;;6203226;28;20073;-79
2023/04/28 05:31:16;;;;;;;8.00;5.65;;;13.40;99.90;;;;;;6202953;28;20050;-79
2023/04/28 05:34:18;;;;;;;7.53;6.82;;;13.50;99.90;;;;;;6203461;28;20050;-79
2023/04/28 05:37:20;;;;;;;7.38;5.07;;;13.50;99.90;;;;;;6203086;28;20057;-80
2023/04/28 05:40:21;;;;;;;7.88;5.95;;;13.50;99.90;;;;;;6202829;28;20049;-79
2023/04/28 05:43:24;;;;;;;6.35;5.72;;;13.50;99.90;;;;;;6230523;23;20173;-81
2023/04/28 05:46:26;;;;;;;7.78;5.88;;;13.50;99.90;;;;;;6204974;28;20046;-81
2023/04/28 05:49:28;;;;;;;7.45;6.03;;;13.50;99.90;;;;;;6200988;28;20057;-78
2023/04/28 05:52:29;;;;;;;8.48;5.50;;;13.50;99.90;;;;;;6199987;28;20057;-79
2023/04/28 05:55:32;;;;;;;7.15;6.45;;;13.60;99.90;;;;;;6199938;28;20141;-79
2023/04/28 05:58:35;;;;;;;6.72;6.13;;;13.60;99.90;;;;;;6200574;28;20080;-78
2023/04/28 06:01:37;;;;;;;6.57;5.55;;;13.70;99.90;;;;;;6200276;28;20416;-78
2023/04/28 06:04:39;;;;;;;6.32;5.72;;;13.80;99.90;;;;;;6199480;28;20500;-79
2023/04/28 06:07:41;;;;;;;5.68;5.18;;;13.80;99.90;;;;;;6205015;28;20507;-79
2023/04/28 06:10:42;;;;;;;4.72;4.18;;;13.90;99.90;;;;;;6223567;28;20057;-78
2023/04/28 06:13:45;;;;;;;5.72;5.22;;;13.90;99.90;;;;;;6224036;28;20042;-79
2023/04/28 06:16:47;;;;;;;11.27;4.88;;;14.00;99.90;;;;;;6223231;28;20408;-79
2023/04/28 06:19:50;;;;;;;5.68;4.55;;;14.00;99.90;;;;;;6224409;28;20436;-78
2023/04/28 06:22:51;;;;;;;10.00;4.95;;;14.00;99.90;;;;;;6224552;28;20132;-79
2023/04/28 06:25:53;;;;;;;8.77;4.32;;;14.10;99.90;;;;;;6223827;28;20057;-78
2023/04/28 06:28:56;;;;;;;8.52;4.95;;;14.10;99.90;;;;;;6224200;28;20163;-78
2023/04/28 06:31:58;;;;;;;7.40;3.85;;;14.10;99.90;;;;;;6223604;28;20045;-79
2023/04/28 06:34:59;;;;;;;4.63;3.60;;;14.10;99.90;;;;;;6223955;28;20046;-79
2023/04/28 06:38:02;;;;;;;5.05;4.47;;;14.10;99.90;;;;;;6224387;28;20058;-78
2023/04/28 06:41:04;;;;;;;11.00;5.10;;;14.10;99.90;;;;;;6224970;28;20049;-79
2023/04/28 06:44:07;;;;;;;5.75;4.55;;;14.10;99.90;;;;;;6223778;28;20129;-78
2023/04/28 06:47:08;;;;;;;6.43;4.70;;;14.10;99.90;;;;;;6222783;28;20054;-78
2023/04/28 06:50:10;;;;;;;5.40;4.57;;;14.10;99.90;;;;;;6223496;28;20069;-79
2023/04/28 06:53:12;;;;;;;5.80;4.82;;;14.10;99.90;;;;;;6222759;28;20038;-79
2023/04/28 06:56:14;;;;;;;6.43;4.57;;;14.10;99.90;;;;;;6223589;28;20050;-78
2023/04/28 06:59:17;;;;;;;5.60;5.10;;;14.10;99.90;;;;;;6223315;28;20042;-79
2023/04/28 07:02:18;;;;;;;5.97;5.30;;;14.10;99.90;;;;;;6223756;28;20141;-79
2023/04/28 07:05:20;;;;;;;7.78;5.80;;;14.00;99.90;;;;;;6222306;28;20050;-79
2023/04/28 07:08:22;;;;;;;7.88;5.80;;;14.10;99.90;;;;;;6223412;28;20046;-78
2023/04/28 07:11:24;;;;;;;7.68;6.45;;;14.10;99.90;;;;;;6223700;28;20512;-79
2023/04/28 07:14:27;;;;;;;7.80;6.22;;;14.10;99.90;;;;;;6223204;28;20052;-78
2023/04/28 07:17:28;;;;;;;13.27;6.53;;;14.10;99.90;;;;;;6225251;28;20052;-79
2023/04/28 07:20:30;;;;;;;12.30;7.25;;;14.10;99.90;;;;;;6223818;28;20053;-79
2023/04/28 07:23:32;;;;;;;7.13;6.43;;;14.00;99.90;;;;;;6226993;28;20042;-80
2023/04/28 07:26:33;;;;;;;9.90;7.15;;;14.00;99.90;;;;;;6228918;28;20046;-80
2023/04/28 07:29:37;;;;;;;8.57;7.55;;;13.90;99.90;;;;;;6209784;28;20054;-79
2023/04/28 07:32:38;;;;;;;6.90;6.28;;;13.90;99.90;;;;;;6202675;28;20531;-79
2023/04/28 07:35:40;;;;;;;9.05;6.95;;;13.90;99.90;;;;;;6202500;28;20038;-80
2023/04/28 07:38:42;;;;;;;6.82;5.95;;;14.00;99.90;;;;;;6203550;28;20051;-80
2023/04/28 07:41:43;;;;;;;7.68;6.85;;;14.00;99.90;;;;;;6203376;28;20057;-79
2023/04/28 07:44:46;;;;;;;5.68;5.15;;;14.00;99.90;;;;;;6206388;28;20054;-81
2023/04/28 07:47:48;;;;;;;8.10;5.75;;;14.10;99.90;;;;;;6222162;28;20045;-81
2023/04/28 07:50:50;;;;;;;7.20;6.50;;;14.10;99.90;;;;;;6230490;28;20054;-79
2023/04/28 07:53:52;;;;;;;12.45;6.22;;;14.20;99.90;;;;;;6229671;28;20136;-80
2023/04/28 07:56:53;;;;;;;10.20;6.82;;;14.20;99.90;;;;;;6228507;28;20050;-80
2023/04/28 07:59:56;;;;;;;8.63;6.22;;;14.20;99.90;;;;;;6227256;28;20053;-79
2023/04/28 08:02:58;;;;;;;8.07;6.82;;;14.30;99.90;;;;;;6225833;28;20049;-79
2023/04/28 08:06:00;;;;;;;10.30;7.03;;;14.30;99.90;;;;;;6225801;28;20054;-79
2023/04/28 08:09:03;;;;;;;6.80;6.20;;;14.30;99.90;;;;;;6225309;28;20046;-79
2023/04/28 08:12:05;;;;;;;7.28;6.40;;;14.30;99.90;;;;;;6225749;28;20056;-80
2023/04/28 08:15:09;;;;;;;7.07;6.38;;;14.30;99.90;;;;;;6226298;28;20100;-80
2023/04/28 08:18:11;;;;;;;9.32;6.25;;;14.40;99.90;;;;;;6227320;28;20054;-80
2023/04/28 08:21:13;;;;;;;9.27;7.00;;;14.40;99.90;;;;;;6225612;28;20042;-79
2023/04/28 08:24:15;;;;;;;9.95;8.27;;;14.40;99.90;;;;;;6225547;28;20049;-79
2023/04/28 08:27:17;;;;;;;12.73;8.13;;;14.40;99.90;;;;;;6227018;28;20066;-81
2023/04/28 08:30:20;;;;;;;9.70;8.13;;;14.40;99.90;;;;;;6227832;28;20448;-80
2023/04/28 08:33:22;;;;;;;11.70;8.73;;;14.40;99.90;;;;;;6225265;28;20042;-81
2023/04/28 08:36:30;;;;;;;7.57;6.78;;;14.50;99.90;;;;;;6226397;28;20124;-81
2023/04/28 08:39:33;;;;;;;10.43;8.45;;;14.50;99.90;;;;;;6228023;28;20041;-81
2023/04/28 08:42:36;;;;;;;10.93;8.38;;;14.50;99.90;;;;;;6231399;28;20140;-81
2023/04/28 08:45:42;;;;;;;9.35;7.75;;;14.60;99.90;;;;;;6231604;28;20042;-81
2023/04/28 08:48:45;;;;;;;10.25;7.07;;;14.70;99.90;;;;;;6230901;28;20068;-81
2023/04/28 08:51:50;;;;;;;10.73;7.25;;;14.80;99.90;;;;;;6230144;28;20037;-81
2023/04/28 08:54:52;;;;;;;8.45;7.00;;;14.80;99.90;;;;;;6230386;28;20046;-81
2023/04/28 08:57:55;;;;;;;8.27;6.65;;;14.80;99.90;;;;;;6230982;28;20054;-81
2023/04/28 09:00:58;;;;;;;6.95;6.35;;;14.80;99.90;;;;;;6230298;28;20054;-80
2023/04/28 09:04:01;;;;;;;8.23;7.43;;;14.80;99.90;;;;;;6230483;28;20056;-80
2023/04/28 09:07:03;;;;;;;7.80;6.70;;;14.90;99.90;;;;;;6229143;28;20540;-80
2023/04/28 09:10:19;;;;;;;7.00;6.07;;;14.90;99.90;;;;;;6220831;28;20050;-82
2023/04/28 09:13:25;;;;;;;8.48;6.28;;;14.90;99.90;;;;;;6228927;28;20046;-80
2023/04/28 09:16:40;;;;;;;7.68;6.97;;;14.90;99.90;;;;;;6214377;28;20069;-80
2023/04/28 09:19:42;;;;;;;10.48;7.30;;;15.00;99.90;;;;;;6206658;28;20649;-80
2023/04/28 09:22:44;;;;;;;8.85;6.95;;;15.00;99.90;;;;;;6205718;28;20062;-80
2023/04/28 09:25:56;;;;;;;7.57;6.88;;;15.20;99.90;;;;;;6205533;28;20054;-80
2023/04/28 09:29:12;;;;;;;10.88;5.90;;;15.30;99.90;;;;;;6207105;28;20053;-80
2023/04/28 09:32:17;;;;;;;8.88;6.13;;;15.50;99.90;;;;;;6206339;28;20100;-80
2023/04/28 09:35:39;;;;;;;7.63;6.20;;;15.50;99.90;;;;;;6208001;28;20050;-80
2023/04/28 09:38:43;;;;;;;6.20;5.60;;;15.60;99.90;;;;;;6212722;28;20049;-79
2023/04/28 09:41:45;;;;;;;6.00;4.53;;;15.60;99.90;;;;;;6226329;28;20045;-80
2023/04/28 09:44:53;;;;;;;5.45;4.93;;;15.70;99.90;;;;;;6231439;28;20041;-81
2023/04/28 09:48:10;;;;;;;7.13;4.55;;;15.70;99.90;;;;;;6232303;28;20504;-79
2023/04/28 09:51:12;;;;;;;7.03;4.70;;;15.80;99.90;;;;;;6229112;28;20574;-80
2023/04/28 09:54:15;;;;;;;4.88;4.20;;;15.90;99.90;;;;;;6229378;28;20053;-79
2023/04/28 09:57:18;;;;;;;5.07;4.60;;;16.00;99.90;;;;;;6229506;28;20056;-82
2023/04/28 10:00:20;;;;;;;6.13;3.83;;;16.20;99.90;;;;;;6235778;28;20053;-80
2023/04/28 10:03:26;;;;;;;6.75;3.90;;;16.40;99.90;;;;;;6232434;28;20058;-81
2023/04/28 10:06:29;;;;;;;4.25;3.53;;;16.50;99.90;;;;;;6231558;28;20065;-81
2023/04/28 10:09:34;;;;;;;5.38;2.97;;;16.80;99.90;;;;;;6227113;28;20048;-81
2023/04/28 10:12:37;;;;;;;3.97;2.95;;;16.80;99.90;;;;;;6229425;28;20607;-82
2023/04/28 10:15:39;;;;;;;4.40;4.00;;;16.80;99.90;;;;;;6230275;28;20473;-80
2023/04/28 10:18:43;;;;;;;3.35;3.05;;;16.90;99.90;;;;;;6231726;28;20064;-80
2023/04/28 10:21:55;;;;;;;6.00;3.35;;;16.80;99.90;;;;;;6229782;28;20066;-80
2023/04/28 10:25:21;;;;;;;3.50;3.20;;;16.80;99.90;;;;;;6230889;28;20041;-80
2023/04/28 10:28:23;;;;;;;2.80;2.60;;;16.70;99.90;;;;;;6230017;28;20056;-80
2023/04/28 10:31:25;;;;;;;5.97;4.53;;;16.70;99.90;;;;;;6231457;28;20053;-80
2023/04/28 10:34:28;;;;;;;4.93;2.65;;;16.80;99.90;;;;;;6232415;28;20053;-80
2023/04/28 10:38:03;;;;;;;4.85;3.50;;;16.90;99.90;;;;;;6232719;28;20046;-81
2023/04/28 10:41:25;;;;;;;3.75;2.90;;;17.00;99.90;;;;;;6230490;28;20048;-80
2023/04/28 10:44:42;;;;;;;4.70;3.30;;;17.30;99.90;;;;;;6233000;28;20049;-80
2023/04/28 10:48:03;;;;;;;3.67;2.70;;;17.40;99.90;;;;;;6232141;28;20038;-80
2023/04/28 10:51:31;;;;;;;3.25;2.95;;;17.40;99.90;;;;;;6231803;28;20075;-80
2023/04/28 10:54:33;;;;;;;3.47;2.88;;;17.60;99.90;;;;;;6232494;28;20550;-79
2023/04/28 10:57:35;;;;;;;3.35;3.05;;;17.70;99.90;;;;;;6230270;28;20523;-80
2023/04/28 11:00:38;;;;;;;3.75;2.63;;;18.00;99.90;;;;;;6228024;28;20050;-79
2023/04/28 11:03:50;;;;;;;4.25;2.83;;;17.90;99.90;;;;;;6231449;28;20053;-81
2023/04/28 11:07:13;;;;;;;3.38;2.75;;;17.80;99.90;;;;;;6233155;28;20080;-81
2023/04/28 11:10:15;;;;;;;2.72;2.53;;;17.80;99.90;;;;;;6216920;28;20505;-81
2023/04/28 11:13:26;;;;;;;2.85;2.33;;;17.80;99.90;;;;;;6215220;28;20056;-81
2023/04/28 11:16:27;;;;;;;2.85;2.08;;;17.80;99.90;;;;;;6234508;28;20057;-81
2023/04/28 11:19:31;;;;;;;4.22;1.75;;;17.90;99.90;;;;;;6233727;28;20046;-80
2023/04/28 11:22:35;;;;;;;2.97;1.90;;;18.10;99.90;;;;;;6232270;28;20054;-80
2023/04/28 11:25:55;;;;;;;4.05;2.10;;;18.10;99.90;;;;;;6214073;28;20439;-80
2023/04/28 11:28:58;;;;;;;1.92;1.50;;;18.10;99.90;;;;;;6210570;28;20046;-81
2023/04/28 11:32:00;;;;;;;7.40;2.45;;;18.10;99.90;;;;;;6211206;28;20051;-81
2023/04/28 11:35:08;;;;;;;4.80;2.42;;;17.80;99.90;;;;;;6211058;28;20057;-82
2023/04/28 11:38:11;;;;;;;2.85;2.53;;;17.60;99.90;;;;;;6215154;28;20053;-81
2023/04/28 11:41:12;;;;;;;4.43;2.35;;;17.50;99.90;;;;;;6213453;28;20046;-81
2023/04/28 11:44:15;;;;;;;2.35;2.15;;;17.40;99.90;;;;;;6206834;28;20047;-80
2023/04/28 11:47:29;;;;;;;2.83;2.45;;;17.40;99.90;;;;;;6205490;28;20053;-80
2023/04/28 11:50:36;;;;;;;5.07;2.03;;;17.50;99.90;;;;;;6204969;28;20057;-79
2023/04/28 11:53:43;;;;;;;4.28;2.38;;;17.50;99.90;;;;;;6221129;28;20061;-79
2023/04/28 11:56:45;;;;;;;2.55;2.25;;;17.60;99.90;;;;;;6224981;28;20420;-79
2023/04/28 11:59:47;;;;;;;1.90;1.70;;;17.60;99.90;;;;;;6230009;28;20041;-80
2023/04/28 12:02:49;;;;;;;2.90;2.13;;;17.60;99.90;;;;;;6230883;28;20054;-80
2023/04/28 12:05:51;;;;;;;3.45;1.83;;;17.50;99.90;;;;;;6228432;28;20131;-79
2023/04/28 12:08:54;;;;;;;8.63;3.90;;;17.40;99.90;;;;;;6228184;28;20078;-79
2023/04/28 12:11:57;;;;;;;7.03;2.60;;;17.20;99.90;;;;;;6228705;28;20052;-79
2023/04/28 12:15:01;;;;;;;2.58;2.38;;;16.90;99.90;;;;;;6214068;28;20497;-79
2023/04/28 12:18:10;;;;;;;1.92;1.50;;;16.80;99.90;;;;;;6209297;28;20054;-79
2023/04/28 12:21:21;;;;;;;6.20;2.35;;;16.70;99.90;;;;;;6208225;28;20061;-79
2023/04/28 12:24:25;;;;;;;5.57;2.13;;;16.70;99.90;;;;;;6219859;28;20041;-79
2023/04/28 12:27:28;;;;;;;2.53;2.10;;;16.90;99.90;;;;;;6231887;28;20073;-80
2023/04/28 12:30:32;;;;;;;2.30;2.10;;;17.10;99.90;;;;;;6233038;28;20054;-79
2023/04/28 12:33:36;;;;;;;2.88;2.30;;;17.30;99.90;;;;;;6231844;28;20518;-79
2023/04/28 12:36:38;;;;;;;1.75;1.42;;;17.40;99.90;;;;;;6233033;28;20061;-79
2023/04/28 12:39:41;;;;;;;3.72;1.58;;;17.80;99.90;;;;;;6233485;28;20053;-79
2023/04/28 12:42:43;;;;;;;2.50;1.50;;;18.10;99.90;;;;;;6230504;28;20050;-79
2023/04/28 12:45:45;;;;;;;1.52;1.42;;;18.10;99.90;;;;;;6208630;28;20102;-79
2023/04/28 12:48:47;;;;;;;3.38;1.70;;;18.20;99.90;;;;;;6208067;28;20420;-80
2023/04/28 12:51:48;;;;;;;1.73;1.40;;;18.10;99.90;;;;;;6208116;28;20046;-80
2023/04/28 12:54:51;;;;;;;1.83;1.73;;;18.10;99.90;;;;;;6207859;28;20042;-80
2023/04/28 12:57:54;;;;;;;1.80;1.70;;;18.10;99.90;;;;;;6208210;28;20050;-79
2023/04/28 13:00:56;;;;;;;2.88;1.30;;;17.90;99.90;;;;;;6208680;28;20043;-79
2023/04/28 13:03:57;;;;;;;1.17;1.08;;;17.80;99.90;;;;;;6208421;28;20062;-79
2023/04/28 13:07:00;;;;;;;3.28;1.45;;;17.80;99.90;;;;;;6206721;28;20046;-79
2023/04/28 13:10:03;;;;;;;4.32;1.70;;;17.70;99.90;;;;;;6207278;28;20424;-79
2023/04/28 13:13:05;;;;;;;2.28;1.75;;;17.70;99.90;;;;;;6206651;28;20046;-79
2023/04/28 13:16:07;;;;;;;3.10;1.70;;;17.70;99.90;;;;;;6206779;28;20125;-79
2023/04/28 13:19:12;;;;;;;2.85;1.67;;;17.60;99.90;;;;;;6207741;28;20066;-80
2023/04/28 13:22:14;;;;;;;1.98;1.75;;;17.60;99.90;;;;;;6208221;28;20065;-78
2023/04/28 13:25:17;;;;;;;2.00;1.65;;;17.50;99.90;;;;;;6223460;28;20049;-79
2023/04/28 13:28:19;;;;;;;1.67;1.58;;;17.60;99.90;;;;;;6230263;28;20053;-79
2023/04/28 13:31:21;;;;;;;1.58;1.40;;;17.50;99.90;;;;;;6231363;28;20053;-79
2023/04/28 13:34:22;;;;;;;1.52;1.40;;;17.30;99.90;;;;;;6231525;28;20050;-81
2023/04/28 13:37:24;;;;;;;2.15;1.98;;;17.30;99.90;;;;;;6226687;28;20048;-79
2023/04/28 13:40:27;;;;;;;3.30;1.92;;;17.20;99.90;;;;;;6222714;28;20052;-79
2023/04/28 13:43:29;;;;;;;11.07;8.55;;;17.00;99.90;;;;;;6215048;28;20038;-79
2023/04/28 13:46:31;;;;;;;4.97;2.55;;;17.00;99.90;;;;;;6216458;28;20042;-79
2023/04/28 13:49:33;;;;;;;9.88;7.97;;;16.90;99.90;;;;;;6230802;28;20046;-80
2023/04/28 13:52:35;;;;;;;2.40;2.20;;;16.80;99.90;;;;;;6229856;28;20088;-78
2023/04/28 13:55:38;;;;;;;2.72;2.53;;;16.80;99.90;;;;;;6207650;28;20065;-80
2023/04/28 13:58:40;;;;;;;2.70;2.33;;;16.80;99.90;;;;;;6209979;28;20655;-79
2023/04/28 14:01:42;;;;;;;4.65;2.42;;;16.80;99.90;;;;;;6205944;28;20085;-79
2023/04/28 14:04:47;;;;;;;3.80;2.05;;;16.90;99.90;;;;;;6205952;28;20050;-79
2023/04/28 14:07:49;;;;;;;3.13;2.83;;;17.10;99.90;;;;;;6209574;28;20189;-79
2023/04/28 14:10:52;;;;;;;3.38;2.70;;;17.10;99.90;;;;;;6214017;28;20416;-79
2023/04/28 14:13:54;;;;;;;2.90;2.42;;;17.20;99.90;;;;;;6229374;28;20058;-79
2023/04/28 14:16:55;;;;;;;2.13;1.63;;;17.10;99.90;;;;;;6229672;28;20053;-80
2023/04/28 14:19:57;;;;;;;2.38;1.60;;;17.10;99.90;;;;;;6230160;28;20049;-80
2023/04/28 14:22:59;;;;;;;2.08;1.73;;;17.10;99.90;;;;;;6221619;28;20038;-78
2023/04/28 14:26:02;;;;;;;2.92;1.80;;;17.20;99.90;;;;;;6230504;28;20488;-80
2023/04/28 14:29:04;;;;;;;2.08;1.58;;;17.30;99.90;;;;;;6230720;28;20063;-79
2023/04/28 14:32:06;;;;;;;1.42;1.33;;;17.30;99.90;;;;;;6229648;28;20092;-79
2023/04/28 14:35:09;;;;;;;4.28;1.48;;;17.50;99.90;;;;;;6230242;28;20042;-79
2023/04/28 14:38:12;;;;;;;2.35;1.67;;;17.60;99.90;;;;;;6230024;28;20045;-79
2023/04/28 14:41:15;;;;;;;1.23;1.13;;;17.60;99.90;;;;;;6213683;28;20046;-78
2023/04/28 14:44:17;;;;;;;4.20;1.33;;;17.80;99.90;;;;;;6213159;28;20069;-79
2023/04/28 14:47:19;;;;;;;1.20;1.10;;;18.00;99.90;;;;;;6213235;28;20069;-79
2023/04/28 14:50:20;;;;;;;1.98;1.75;;;18.10;99.90;;;;;;6211930;28;20049;-79
2023/04/28 14:53:23;;;;;;;2.30;0.93;;;18.20;99.90;;;;;;6212834;28;20042;-79
2023/04/28 14:56:26;;;;;;;6.63;1.23;;;18.20;99.90;;;;;;6214933;28;20420;-80
2023/04/28 14:59:28;;;;;;;3.17;1.23;;;18.40;99.90;;;;;;6213780;28;20064;-79
2023/04/28 15:02:30;;;;;;;1.23;1.02;;;18.50;99.90;;;;;;6213995;28;20061;-80
2023/04/28 15:05:31;;;;;;;2.83;1.00;;;18.50;99.90;;;;;;6211423;28;20108;-80
2023/04/28 15:08:33;;;;;;;1.75;1.33;;;18.40;99.90;;;;;;6212940;28;20046;-79
2023/04/28 15:11:36;;;;;;;1.20;1.10;;;18.40;99.90;;;;;;6217760;28;20050;-78
2023/04/28 15:14:38;;;;;;;1.48;1.30;;;18.30;99.90;;;;;;6214460;28;20582;-79
2023/04/28 15:17:40;;;;;;;1.52;1.25;;;18.30;99.90;;;;;;6214668;28;20061;-80
2023/04/28 15:20:41;;;;;;;1.30;1.20;;;18.40;99.90;;;;;;6216636;28;20057;-79
2023/04/28 15:23:43;;;;;;;1.83;1.20;;;18.30;99.90;;;;;;6214556;28;20050;-79
2023/04/28 15:26:46;;;;;;;2.58;1.00;;;18.30;99.90;;;;;;6213067;28;20416;-79
2023/04/28 15:29:48;;;;;;;1.77;1.35;;;18.30;99.90;;;;;;6213412;28;20093;-80
2023/04/28 15:32:50;;;;;;;2.00;1.23;;;18.20;99.90;;;;;;6213004;28;20069;-79
2023/04/28 15:35:51;;;;;;;1.55;1.10;;;18.20;99.90;;;;;;6212637;28;20046;-79
2023/04/28 15:38:53;;;;;;;2.28;1.00;;;18.10;99.90;;;;;;6212170;28;20057;-79
2023/04/28 15:41:57;;;;;;;2.25;1.40;;;18.10;99.90;;;;;;6213428;28;20046;-80
2023/04/28 15:45:01;;;;;;;1.35;0.80;;;18.00;99.90;;;;;;6210046;28;20041;-79
2023/04/28 15:48:03;;;;;;;2.15;1.70;;;17.90;99.90;;;;;;6211928;28;20048;-80
2023/04/28 15:51:05;;;;;;;1.15;1.13;;;17.80;99.90;;;;;;6214041;28;20046;-80